Time;durP1;ratioP1;P1;durP2;ratioP2;P2;SDS_P1;SDS_P2;PMS_P1;PMS_P2;Temp;Humidity;BMP_temperature;BMP_pressure;BME280_temperature;BME280_humidity;BME280_pressure;Samples;Min_cycle;Max_cycle;Signal;HPM_P1;HPM_P2
2022/09/11 00:00:28;;;;;;;18.52;14.27;;;18.00;81.30;;;;;;5095757;28;20405;-62
2022/09/11 00:02:53;;;;;;;20.48;14.35;;;17.90;81.30;;;;;;5094886;28;20444;-62
2022/09/11 00:05:19;;;;;;;19.60;14.48;;;18.00;81.30;;;;;;5070046;28;20075;-62
2022/09/11 00:07:46;;;;;;;19.65;13.77;;;17.90;81.30;;;;;;5071808;28;20032;-62
2022/09/11 00:10:11;;;;;;;19.40;15.27;;;17.90;81.30;;;;;;5089380;28;20027;-62
2022/09/11 00:12:37;;;;;;;18.08;13.98;;;17.90;81.30;;;;;;5091235;28;20459;-62
2022/09/11 00:15:03;;;;;;;18.02;14.10;;;17.90;81.30;;;;;;5095258;28;20028;-62
2022/09/11 00:17:29;;;;;;;18.70;14.07;;;17.90;81.30;;;;;;5086100;28;20037;-62
2022/09/11 00:19:54;;;;;;;19.85;15.02;;;17.80;81.30;;;;;;5073667;28;20084;-62
2022/09/11 00:22:20;;;;;;;20.48;13.90;;;17.80;81.30;;;;;;5096677;28;20023;-62
2022/09/11 00:24:46;;;;;;;21.10;15.02;;;17.80;81.30;;;;;;5096022;28;20107;-62
2022/09/11 00:27:12;;;;;;;18.10;14.57;;;17.80;81.30;;;;;;5093821;28;20020;-62
2022/09/11 00:29:37;;;;;;;20.95;15.60;;;17.70;81.30;;;;;;5075199;28;20032;-62
2022/09/11 00:32:03;;;;;;;20.30;16.27;;;17.70;81.30;;;;;;5077586;28;20101;-62
2022/09/11 00:34:29;;;;;;;18.40;14.63;;;17.70;81.30;;;;;;5095820;28;20019;-62
2022/09/11 00:36:55;;;;;;;20.92;15.15;;;17.70;81.20;;;;;;5096461;28;20024;-62
2022/09/11 00:39:20;;;;;;;20.38;14.77;;;17.70;81.30;;;;;;5078725;28;20020;-62
2022/09/11 00:41:46;;;;;;;18.27;13.73;;;17.70;81.20;;;;;;5093491;28;20441;-62
2022/09/11 00:44:16;;;;;;;18.00;13.82;;;17.60;81.20;;;;;;5094445;28;20028;-63
2022/09/11 00:46:54;;;;;;;18.48;14.38;;;17.60;81.20;;;;;;5078641;28;20044;-63
2022/09/11 00:49:43;;;;;;;20.80;14.65;;;17.60;81.20;;;;;;5076504;28;20044;-62
2022/09/11 00:52:19;;;;;;;15.98;12.85;;;17.60;81.20;;;;;;5095127;28;20059;-62
2022/09/11 00:54:48;;;;;;;19.75;15.05;;;17.50;81.20;;;;;;5087099;28;20097;-62
2022/09/11 00:57:17;;;;;;;20.85;15.75;;;17.50;81.30;;;;;;5078334;28;20115;-63
2022/09/11 00:59:46;;;;;;;16.52;13.63;;;17.50;81.30;;;;;;5066093;28;20052;-63
2022/09/11 01:02:16;;;;;;;18.55;14.95;;;17.50;81.40;;;;;;5060089;28;20314;-62
2022/09/11 01:04:41;;;;;;;19.92;14.90;;;17.40;81.40;;;;;;5093355;28;20395;-63
2022/09/11 01:07:09;;;;;;;19.23;14.43;;;17.40;81.30;;;;;;5091270;28;20028;-63
2022/09/11 01:09:34;;;;;;;19.30;14.98;;;17.50;81.40;;;;;;5061333;28;20032;-63
2022/09/11 01:12:06;;;;;;;19.20;14.77;;;17.50;81.30;;;;;;5074856;28;20514;-63
2022/09/11 01:14:57;;;;;;;19.42;13.93;;;17.40;81.90;;;;;;5087123;28;20024;-63
2022/09/11 01:17:46;;;;;;;17.35;14.52;;;17.40;81.10;;;;;;5064536;28;20134;-62
2022/09/11 01:20:25;;;;;;;17.25;13.88;;;17.40;81.10;;;;;;5093861;28;20020;-63
2022/09/11 01:23:03;;;;;;;19.05;14.45;;;17.40;81.10;;;;;;5070683;28;20123;-62
2022/09/11 01:25:58;;;;;;;20.02;14.20;;;17.40;81.00;;;;;;5092573;28;20060;-62
2022/09/11 01:28:34;;;;;;;17.02;13.30;;;17.40;81.00;;;;;;5070145;28;20067;-62
2022/09/11 01:31:08;;;;;;;17.38;13.88;;;17.40;81.10;;;;;;5060674;28;20537;-62
2022/09/11 01:33:38;;;;;;;16.52;13.77;;;17.30;81.10;;;;;;5062878;28;20123;-62
2022/09/11 01:36:12;;;;;;;18.60;15.23;;;17.30;81.20;;;;;;5085658;28;20369;-63
2022/09/11 01:38:55;;;;;;;16.70;13.60;;;17.30;81.20;;;;;;5077442;28;20051;-62
2022/09/11 01:41:26;;;;;;;18.00;13.85;;;17.30;81.10;;;;;;5076298;28;20024;-62
2022/09/11 01:44:01;;;;;;;17.42;13.65;;;17.30;81.10;;;;;;5071911;28;20031;-62
2022/09/11 01:46:27;;;;;;;19.05;14.57;;;17.30;81.00;;;;;;5060753;28;20040;-63
2022/09/11 01:49:18;;;;;;;21.20;14.45;;;17.30;81.00;;;;;;5077047;28;20028;-62
2022/09/11 01:51:47;;;;;;;16.83;13.73;;;17.30;80.90;;;;;;5071516;28;20044;-62
2022/09/11 01:54:19;;;;;;;19.20;13.68;;;17.30;81.00;;;;;;5071474;28;20028;-63
2022/09/11 01:56:59;;;;;;;19.02;13.93;;;17.30;80.90;;;;;;5057778;28;20028;-62
2022/09/11 01:59:46;;;;;;;18.70;13.63;;;17.30;80.90;;;;;;5077274;28;20468;-62
2022/09/11 02:02:14;;;;;;;16.90;13.27;;;17.20;80.80;;;;;;5054982;28;20033;-62
2022/09/11 02:04:59;;;;;;;18.33;12.88;;;17.20;80.80;;;;;;5076365;28;20073;-62
2022/09/11 02:07:43;;;;;;;22.05;14.75;;;17.20;80.80;;;;;;5064022;28;20073;-62
2022/09/11 02:10:21;;;;;;;18.38;13.63;;;17.20;80.90;;;;;;5090422;28;20040;-62
2022/09/11 02:13:04;;;;;;;18.13;13.80;;;17.20;80.90;;;;;;5076163;28;20039;-62
2022/09/11 02:15:39;;;;;;;18.27;14.38;;;17.20;80.80;;;;;;5091102;28;20032;-62
2022/09/11 02:18:28;;;;;;;18.85;14.27;;;17.20;80.80;;;;;;5075561;28;20044;-62
2022/09/11 02:20:54;;;;;;;19.10;14.25;;;17.20;80.70;;;;;;5074671;28;20067;-62
2022/09/11 02:23:20;;;;;;;22.40;15.55;;;17.10;80.70;;;;;;5074805;28;20032;-62
2022/09/11 02:25:46;;;;;;;19.98;14.88;;;17.10;80.70;;;;;;5093993;28;20109;-62
2022/09/11 02:28:12;;;;;;;19.95;14.63;;;17.10;80.70;;;;;;5094690;28;20121;-62
2022/09/11 02:30:41;;;;;;;20.10;14.82;;;17.10;80.70;;;;;;5060278;28;20158;-63
2022/09/11 02:33:27;;;;;;;19.95;14.52;;;17.10;80.70;;;;;;5071526;28;20020;-63
2022/09/11 02:36:02;;;;;;;19.08;14.60;;;17.10;80.60;;;;;;5078200;28;20020;-63
2022/09/11 02:38:43;;;;;;;19.50;14.45;;;17.10;80.60;;;;;;5100456;28;20024;-63
2022/09/11 02:41:19;;;;;;;21.83;15.02;;;17.10;80.70;;;;;;5076627;28;20042;-63
2022/09/11 02:43:52;;;;;;;20.23;14.32;;;17.10;80.60;;;;;;5052080;28;20442;-63
2022/09/11 02:46:47;;;;;;;20.85;15.13;;;17.10;80.60;;;;;;5081610;28;20012;-63
2022/09/11 02:49:47;;;;;;;20.00;14.50;;;17.10;80.60;;;;;;5083389;28;20475;-63
2022/09/11 02:52:27;;;;;;;19.13;14.10;;;17.00;80.50;;;;;;5056403;28;20044;-62
2022/09/11 02:55:18;;;;;;;18.65;14.27;;;17.00;80.60;;;;;;5082935;28;20016;-63
2022/09/11 02:58:00;;;;;;;18.27;14.55;;;17.00;80.60;;;;;;5083337;28;20127;-63
2022/09/11 03:00:27;;;;;;;19.75;14.63;;;17.00;80.60;;;;;;5079164;28;20452;-63
2022/09/11 03:02:52;;;;;;;19.00;13.70;;;17.00;80.60;;;;;;5078894;28;20357;-63
2022/09/11 03:05:20;;;;;;;19.20;14.38;;;17.00;80.60;;;;;;5083127;28;20061;-63
2022/09/11 03:07:46;;;;;;;20.55;15.48;;;17.00;80.60;;;;;;5083093;28;20024;-63
2022/09/11 03:10:13;;;;;;;19.80;14.60;;;17.00;80.50;;;;;;5082817;28;20356;-63
2022/09/11 03:12:40;;;;;;;19.77;15.32;;;16.90;80.50;;;;;;5082365;28;20032;-63
2022/09/11 03:15:09;;;;;;;22.98;15.90;;;16.90;80.50;;;;;;5098824;28;20043;-63
2022/09/11 03:17:35;;;;;;;20.75;15.27;;;16.90;80.50;;;;;;5077347;28;20040;-63
2022/09/11 03:20:02;;;;;;;20.98;15.30;;;16.90;80.50;;;;;;5077623;28;20024;-63
2022/09/11 03:22:28;;;;;;;22.23;16.88;;;16.90;80.50;;;;;;5081001;28;20036;-63
2022/09/11 03:24:54;;;;;;;21.98;15.63;;;16.90;80.50;;;;;;5080386;28;20028;-63
2022/09/11 03:27:22;;;;;;;20.55;14.88;;;16.90;80.50;;;;;;5099742;28;20123;-61
2022/09/11 03:29:48;;;;;;;18.00;14.10;;;16.90;80.60;;;;;;5083076;28;20031;-63
2022/09/11 03:32:15;;;;;;;20.52;15.23;;;16.80;80.50;;;;;;5064495;28;20031;-63
2022/09/11 03:34:41;;;;;;;19.20;13.40;;;16.90;80.60;;;;;;5074513;28;20032;-63
2022/09/11 03:37:07;;;;;;;21.35;13.77;;;16.80;80.50;;;;;;5066155;28;20031;-63
2022/09/11 03:39:33;;;;;;;17.90;12.98;;;16.80;81.10;;;;;;5082555;28;20055;-63
2022/09/11 03:42:00;;;;;;;16.92;12.90;;;16.80;80.50;;;;;;5066372;28;20067;-63
2022/09/11 03:44:26;;;;;;;19.00;12.75;;;16.80;80.50;;;;;;5061526;28;20069;-62
2022/09/11 03:46:52;;;;;;;18.23;13.25;;;16.80;80.50;;;;;;5055214;28;20025;-62
2022/09/11 03:49:19;;;;;;;16.73;11.50;;;16.80;80.40;;;;;;5080502;28;20455;-63
2022/09/11 03:51:46;;;;;;;15.77;11.35;;;16.70;80.30;;;;;;5078709;28;20028;-62
2022/09/11 03:54:13;;;;;;;16.77;12.77;;;16.70;80.30;;;;;;5071967;28;20024;-62
2022/09/11 03:56:38;;;;;;;17.02;12.32;;;16.70;80.30;;;;;;5079382;28;20020;-63
2022/09/11 03:59:04;;;;;;;15.38;11.93;;;16.70;80.30;;;;;;5075155;28;20081;-63
2022/09/11 04:01:30;;;;;;;15.88;11.65;;;16.60;80.20;;;;;;5066827;28;20460;-63
2022/09/11 04:03:56;;;;;;;19.38;13.40;;;16.60;80.40;;;;;;5064745;28;20036;-63
2022/09/11 04:06:28;;;;;;;18.55;12.00;;;16.60;80.20;;;;;;5074453;28;20031;-63
2022/09/11 04:08:54;;;;;;;17.55;12.32;;;16.60;80.20;;;;;;5088154;28;20445;-63
2022/09/11 04:11:21;;;;;;;17.77;12.27;;;16.60;80.20;;;;;;5079237;28;20081;-63
2022/09/11 04:13:47;;;;;;;18.88;12.60;;;16.60;80.20;;;;;;5094050;28;20031;-63
2022/09/11 04:16:17;;;;;;;17.27;11.65;;;16.60;80.20;;;;;;5078537;28;20047;-63
2022/09/11 04:18:47;;;;;;;16.80;12.60;;;16.60;80.20;;;;;;5076966;28;20047;-63
2022/09/11 04:21:16;;;;;;;18.08;12.18;;;16.50;80.10;;;;;;5077311;28;20062;-63
2022/09/11 04:23:46;;;;;;;15.35;11.18;;;16.60;80.20;;;;;;5068233;28;20024;-63
2022/09/11 04:26:23;;;;;;;16.88;11.52;;;16.50;80.10;;;;;;5056340;28;20028;-63
2022/09/11 04:28:52;;;;;;;15.52;10.55;;;16.50;80.10;;;;;;5059609;28;20020;-63
2022/09/11 04:31:19;;;;;;;15.77;10.38;;;16.50;80.10;;;;;;5070410;28;20457;-63
2022/09/11 04:33:46;;;;;;;14.93;10.30;;;16.50;80.10;;;;;;5081880;28;20028;-63
2022/09/11 04:36:16;;;;;;;16.08;10.90;;;16.50;80.10;;;;;;5058333;28;20028;-63
2022/09/11 04:38:43;;;;;;;15.90;10.30;;;16.40;80.00;;;;;;5086388;28;20043;-63
2022/09/11 04:41:12;;;;;;;17.08;10.60;;;16.50;80.10;;;;;;5072772;28;20483;-63
2022/09/11 04:43:40;;;;;;;15.30;10.63;;;16.40;80.10;;;;;;5058912;28;20103;-62
2022/09/11 04:46:12;;;;;;;13.15;9.45;;;16.40;80.00;;;;;;5069088;28;20021;-62
2022/09/11 04:48:46;;;;;;;15.75;10.52;;;16.40;79.90;;;;;;5068381;28;20028;-62
2022/09/11 04:51:29;;;;;;;13.55;9.40;;;16.40;79.90;;;;;;5070911;28;20024;-63
2022/09/11 04:53:58;;;;;;;13.73;9.38;;;16.40;79.90;;;;;;5091282;28;20119;-62
2022/09/11 04:56:33;;;;;;;12.57;8.90;;;16.30;79.80;;;;;;5075409;28;20020;-62
2022/09/11 04:59:02;;;;;;;13.10;9.45;;;16.30;79.80;;;;;;5095770;28;20032;-63
2022/09/11 05:01:30;;;;;;;13.63;9.85;;;16.30;79.80;;;;;;5075910;28;20353;-63
2022/09/11 05:04:00;;;;;;;13.50;9.23;;;16.30;79.80;;;;;;5068416;28;20055;-62
2022/09/11 05:06:29;;;;;;;11.90;8.90;;;16.30;79.80;;;;;;5061552;28;20031;-62
2022/09/11 05:09:00;;;;;;;13.55;9.65;;;16.30;79.80;;;;;;5078138;28;20031;-62
2022/09/11 05:11:26;;;;;;;14.10;9.57;;;16.30;79.80;;;;;;5064546;28;20119;-62
2022/09/11 05:13:52;;;;;;;13.77;9.85;;;16.30;79.70;;;;;;5047361;28;20107;-63
2022/09/11 05:16:19;;;;;;;13.88;9.50;;;16.30;79.70;;;;;;5049590;28;20028;-63
2022/09/11 05:18:50;;;;;;;13.75;9.07;;;16.30;79.70;;;;;;5066578;28;20040;-62
2022/09/11 05:21:17;;;;;;;;;;;16.20;79.50;;;;;;5069388;28;20016;-63
2022/09/11 05:23:47;;;;;;;11.73;8.02;;;16.20;79.60;;;;;;5073505;28;20317;-62
2022/09/11 05:26:16;;;;;;;13.07;8.93;;;16.20;79.60;;;;;;5049309;28;20016;-62
2022/09/11 05:28:43;;;;;;;13.07;9.15;;;16.20;79.60;;;;;;5059337;28;20032;-62
2022/09/11 05:31:15;;;;;;;12.40;7.82;;;16.20;79.60;;;;;;5054358;28;20024;-62
2022/09/11 05:33:42;;;;;;;;;;;16.20;79.50;;;;;;5059962;28;20032;-62
2022/09/11 05:36:08;;;;;;;12.57;7.88;;;16.20;79.50;;;;;;5059865;28;20349;-62
2022/09/11 05:38:35;;;;;;;12.15;8.80;;;16.20;79.60;;;;;;5069566;28;20036;-62
2022/09/11 05:41:05;;;;;;;15.98;9.77;;;16.20;79.50;;;;;;5053871;28;20444;-62
2022/09/11 05:43:32;;;;;;;11.75;8.02;;;16.20;79.50;;;;;;5087313;28;20052;-63
2022/09/11 05:45:58;;;;;;;12.52;8.18;;;16.20;79.50;;;;;;5068735;28;20020;-63
2022/09/11 05:48:28;;;;;;;12.52;8.15;;;16.20;79.50;;;;;;5072026;28;20028;-63
2022/09/11 05:51:00;;;;;;;13.70;8.57;;;16.20;79.50;;;;;;5070357;28;20445;-63
2022/09/11 05:53:27;;;;;;;;;;;16.20;79.40;;;;;;5066315;28;20016;-63
2022/09/11 05:55:54;;;;;;;11.27;7.80;;;16.20;79.40;;;;;;5094219;28;19915;-63
2022/09/11 05:58:21;;;;;;;12.35;8.27;;;16.20;79.50;;;;;;5051125;28;20361;-63
2022/09/11 06:00:47;;;;;;;13.43;9.00;;;16.20;79.50;;;;;;5090746;28;20473;-63
2022/09/11 06:03:14;;;;;;;14.75;8.77;;;16.20;79.50;;;;;;5075244;28;20020;-63
2022/09/11 06:05:40;;;;;;;12.27;8.35;;;16.30;79.60;;;;;;5074267;28;20026;-63
2022/09/11 06:08:07;;;;;;;13.18;9.20;;;16.30;79.60;;;;;;5072985;28;20031;-63
2022/09/11 06:10:35;;;;;;;13.07;9.02;;;16.40;79.60;;;;;;5063287;28;20055;-62
2022/09/11 06:13:01;;;;;;;12.50;8.75;;;16.40;79.60;;;;;;5076735;28;20504;-62
2022/09/11 06:15:27;;;;;;;11.50;8.25;;;16.40;79.50;;;;;;5064048;28;20154;-63
2022/09/11 06:17:53;;;;;;;11.38;8.50;;;16.50;79.60;;;;;;5056649;28;20048;-63
2022/09/11 06:20:19;;;;;;;12.93;8.52;;;16.50;79.60;;;;;;5068625;28;20032;-63
2022/09/11 06:22:47;;;;;;;11.98;8.45;;;16.50;79.60;;;;;;5059338;28;20025;-63
2022/09/11 06:25:13;;;;;;;12.80;8.70;;;16.60;79.60;;;;;;5076752;28;20034;-63
2022/09/11 06:27:39;;;;;;;12.82;8.98;;;16.60;79.50;;;;;;5092187;28;20357;-62
2022/09/11 06:30:05;;;;;;;12.93;8.98;;;16.90;79.20;;;;;;5072226;28;20054;-63
2022/09/11 06:32:34;;;;;;;12.38;8.60;;;17.20;78.50;;;;;;5065114;28;20368;-63
2022/09/11 06:35:00;;;;;;;14.13;9.40;;;17.30;78.10;;;;;;5075718;28;20115;-63
2022/09/11 06:37:25;;;;;;;13.52;9.93;;;17.40;78.20;;;;;;5076246;28;20023;-63
2022/09/11 06:39:51;;;;;;;14.82;10.38;;;17.40;78.20;;;;;;5069304;28;20055;-65
2022/09/11 06:42:23;;;;;;;13.50;9.98;;;17.40;78.30;;;;;;5071343;28;20024;-62
2022/09/11 06:44:50;;;;;;;13.50;9.38;;;17.40;78.30;;;;;;5059195;28;20078;-62
2022/09/11 06:47:16;;;;;;;14.98;10.65;;;17.40;78.30;;;;;;5085856;28;20442;-62
2022/09/11 06:49:42;;;;;;;16.33;10.63;;;17.50;78.40;;;;;;5073952;28;20116;-62
2022/09/11 06:52:24;;;;;;;16.02;10.18;;;17.50;78.40;;;;;;5069137;28;20115;-61
2022/09/11 06:55:03;;;;;;;15.68;10.75;;;17.60;78.40;;;;;;5048459;28;20063;-62
2022/09/11 06:57:29;;;;;;;13.38;9.75;;;17.60;78.40;;;;;;5076642;28;20449;-63
2022/09/11 06:59:56;;;;;;;16.27;10.60;;;17.70;79.00;;;;;;5066939;28;20039;-63
2022/09/11 07:02:24;;;;;;;14.20;10.02;;;17.70;78.30;;;;;;5062031;28;20027;-62
2022/09/11 07:04:52;;;;;;;14.05;10.10;;;17.80;78.20;;;;;;5063054;28;20062;-63
2022/09/11 07:07:19;;;;;;;16.42;11.73;;;17.90;78.20;;;;;;5071904;28;20353;-63
2022/09/11 07:09:45;;;;;;;13.85;10.05;;;18.00;78.20;;;;;;5051255;28;20021;-63
2022/09/11 07:12:11;;;;;;;13.95;10.23;;;18.00;78.10;;;;;;5062072;28;21477;-63
2022/09/11 07:14:38;;;;;;;14.30;10.35;;;18.10;78.10;;;;;;5074438;28;20020;-63
2022/09/11 07:17:10;;;;;;;13.77;9.95;;;18.20;78.00;;;;;;5076281;28;20051;-62
2022/09/11 07:19:38;;;;;;;15.68;10.77;;;18.30;78.00;;;;;;5073065;28;20036;-62
2022/09/11 07:22:03;;;;;;;17.80;11.55;;;18.40;77.90;;;;;;5057038;28;20035;-63
2022/09/11 07:24:31;;;;;;;18.92;11.85;;;18.40;77.80;;;;;;5062121;28;20060;-63
2022/09/11 07:26:57;;;;;;;14.38;11.38;;;18.50;77.80;;;;;;5077530;28;20081;-63
2022/09/11 07:29:28;;;;;;;17.15;12.35;;;18.60;77.80;;;;;;5079336;28;20019;-62
2022/09/11 07:31:56;;;;;;;17.75;12.95;;;18.60;77.60;;;;;;5070680;28;20044;-62
2022/09/11 07:34:22;;;;;;;16.27;12.65;;;18.70;77.60;;;;;;5070593;28;20032;-62
2022/09/11 07:36:50;;;;;;;18.50;12.77;;;18.80;77.40;;;;;;5066257;28;20056;-62
2022/09/11 07:39:16;;;;;;;17.17;12.88;;;18.90;77.40;;;;;;5072861;28;20082;-62
2022/09/11 07:41:54;;;;;;;14.90;11.95;;;19.00;77.20;;;;;;5056976;28;20048;-63
2022/09/11 07:44:25;;;;;;;15.93;12.52;;;19.20;77.10;;;;;;5072467;28;20445;-64
2022/09/11 07:46:51;;;;;;;16.98;12.45;;;19.30;76.80;;;;;;5062300;28;20073;-61
2022/09/11 07:49:17;;;;;;;15.55;11.95;;;19.50;76.60;;;;;;5060809;28;20024;-63
2022/09/11 07:51:43;;;;;;;15.98;12.23;;;19.70;76.20;;;;;;5062564;28;20035;-62
2022/09/11 07:54:10;;;;;;;14.73;12.45;;;19.90;75.80;;;;;;5072615;28;20074;-63
2022/09/11 07:56:39;;;;;;;16.88;13.07;;;20.10;75.40;;;;;;5073175;28;20024;-62
2022/09/11 07:59:07;;;;;;;16.10;12.88;;;20.30;75.10;;;;;;5069954;28;20062;-63
2022/09/11 08:01:34;;;;;;;16.58;13.15;;;20.40;74.90;;;;;;5055656;28;20425;-63
2022/09/11 08:04:03;;;;;;;20.38;14.38;;;20.60;74.70;;;;;;5060779;28;20072;-63
2022/09/11 08:06:31;;;;;;;17.48;13.95;;;20.80;74.40;;;;;;5090538;28;20040;-63
2022/09/11 08:09:02;;;;;;;15.90;13.35;;;21.00;74.10;;;;;;5088073;28;20040;-62
2022/09/11 08:11:34;;;;;;;16.33;12.50;;;21.20;73.70;;;;;;5047098;28;20020;-63
2022/09/11 08:14:01;;;;;;;19.27;13.67;;;21.40;73.30;;;;;;5072800;28;20348;-63
2022/09/11 08:16:27;;;;;;;17.58;13.45;;;21.40;73.00;;;;;;5077351;28;20016;-63
2022/09/11 08:18:56;;;;;;;16.33;13.05;;;21.40;73.20;;;;;;5078935;28;20048;-62
2022/09/11 08:21:23;;;;;;;17.10;12.75;;;21.30;73.10;;;;;;5077257;28;20028;-62
2022/09/11 08:23:49;;;;;;;15.88;13.32;;;21.30;73.30;;;;;;5070528;28;20020;-63
2022/09/11 08:26:20;;;;;;;17.25;12.50;;;21.20;73.30;;;;;;5079341;28;20020;-63
2022/09/11 08:28:50;;;;;;;17.10;12.45;;;21.10;73.50;;;;;;5044564;28;20056;-63
2022/09/11 08:31:18;;;;;;;13.10;11.70;;;21.10;73.40;;;;;;5070511;28;20372;-63
2022/09/11 08:33:45;;;;;;;14.52;11.35;;;21.30;73.00;;;;;;5075879;28;20024;-63
2022/09/11 08:36:15;;;;;;;17.65;12.05;;;21.50;72.70;;;;;;5062317;28;20031;-63
2022/09/11 08:38:42;;;;;;;15.00;11.03;;;21.50;72.40;;;;;;5072312;28;20414;-63
2022/09/11 08:41:40;;;;;;;15.40;10.55;;;21.50;72.10;;;;;;5078787;28;20262;-63
2022/09/11 08:44:14;;;;;;;13.82;10.60;;;21.40;72.20;;;;;;5055121;28;20017;-63
2022/09/11 08:46:43;;;;;;;14.23;11.30;;;21.30;72.60;;;;;;5069689;28;20028;-62
2022/09/11 08:49:09;;;;;;;14.85;10.45;;;21.20;72.60;;;;;;5061386;28;20487;-63
2022/09/11 08:51:36;;;;;;;13.05;9.27;;;21.00;72.80;;;;;;5075822;28;20051;-63
2022/09/11 08:54:03;;;;;;;12.90;10.50;;;20.90;73.10;;;;;;5074467;28;20032;-62
2022/09/11 08:56:35;;;;;;;12.77;10.25;;;20.70;73.50;;;;;;5078346;28;20023;-62
2022/09/11 08:59:32;;;;;;;15.45;12.10;;;20.60;73.90;;;;;;5075859;28;20032;-63
2022/09/11 09:02:45;;;;;;;15.98;12.32;;;20.40;74.30;;;;;;5043836;28;20074;-63
2022/09/11 09:05:35;;;;;;;16.65;13.27;;;20.30;74.90;;;;;;4994218;28;20044;-63
2022/09/11 09:08:17;;;;;;;15.68;12.70;;;20.20;75.30;;;;;;4972438;28;20057;-64
2022/09/11 09:10:55;;;;;;;18.85;14.20;;;20.10;75.70;;;;;;5010527;28;20101;-63
2022/09/11 09:14:04;;;;;;;18.80;14.38;;;20.00;75.90;;;;;;4976342;28;20129;-63
2022/09/11 09:16:53;;;;;;;17.70;13.13;;;19.90;76.20;;;;;;4977582;28;20030;-64
2022/09/11 09:19:40;;;;;;;17.63;13.82;;;19.80;76.50;;;;;;4972293;28;20047;-63
2022/09/11 09:22:12;;;;;;;19.02;14.65;;;19.70;76.80;;;;;;5008467;28;20022;-63
2022/09/11 09:24:43;;;;;;;19.83;14.93;;;19.70;76.90;;;;;;4977146;28;20150;-64
2022/09/11 09:27:16;;;;;;;20.45;16.05;;;19.70;77.10;;;;;;4994341;28;20372;-64
2022/09/11 09:29:46;;;;;;;17.85;13.80;;;19.70;77.40;;;;;;4974733;28;20038;-64
2022/09/11 09:32:27;;;;;;;17.77;14.50;;;19.70;77.50;;;;;;4977132;28;20031;-63
2022/09/11 09:34:59;;;;;;;19.58;14.30;;;19.90;77.30;;;;;;4978051;28;20026;-64
2022/09/11 09:37:27;;;;;;;17.58;13.35;;;19.90;77.10;;;;;;4994170;28;20100;-63
2022/09/11 09:39:54;;;;;;;20.08;13.68;;;20.30;76.60;;;;;;5051977;28;20041;-63
2022/09/11 09:42:42;;;;;;;16.35;12.75;;;20.80;75.60;;;;;;5053097;28;20031;-64
2022/09/11 09:45:37;;;;;;;15.43;11.30;;;21.30;74.60;;;;;;5069894;28;20016;-64
2022/09/11 09:48:03;;;;;;;14.50;10.85;;;21.70;73.40;;;;;;5078222;28;20036;-64
2022/09/11 09:50:32;;;;;;;15.18;11.60;;;22.10;72.30;;;;;;5094235;28;20054;-64
2022/09/11 09:53:27;;;;;;;15.75;12.75;;;22.40;71.30;;;;;;5087648;28;20082;-64
2022/09/11 09:55:55;;;;;;;14.50;12.02;;;22.50;70.70;;;;;;5081812;28;20034;-64
2022/09/11 09:58:38;;;;;;;13.32;10.77;;;22.70;70.50;;;;;;5075463;28;20016;-64
2022/09/11 10:01:26;;;;;;;14.25;11.63;;;22.70;70.00;;;;;;5070224;28;20098;-61
2022/09/11 10:04:17;;;;;;;12.85;10.68;;;22.70;70.10;;;;;;5075484;28;20375;-63
2022/09/11 10:06:47;;;;;;;;;;;22.60;70.00;;;;;;5081408;28;20056;-63
2022/09/11 10:09:26;;;;;;;12.13;8.63;;;22.50;70.40;;;;;;5082100;28;20337;-63
2022/09/11 10:12:01;;;;;;;11.90;8.95;;;22.40;70.10;;;;;;5089698;28;20035;-63
2022/09/11 10:14:30;;;;;;;14.55;8.90;;;22.20;70.30;;;;;;5076431;28;20356;-63
2022/09/11 10:16:55;;;;;;;12.05;9.05;;;22.00;70.20;;;;;;5076191;28;20514;-62
2022/09/11 10:19:41;;;;;;;13.45;10.18;;;21.90;70.40;;;;;;5057997;28;20032;-63
2022/09/11 10:22:24;;;;;;;14.13;10.60;;;21.70;70.50;;;;;;5070065;28;20031;-63
2022/09/11 10:25:11;;;;;;;13.98;9.60;;;21.70;70.80;;;;;;5092966;28;20036;-63
2022/09/11 10:27:42;;;;;;;14.90;10.15;;;21.50;70.80;;;;;;5078869;28;20024;-62
2022/09/11 10:30:23;;;;;;;;;;;21.50;71.10;;;;;;5076895;28;20028;-63
2022/09/11 10:32:49;;;;;;;12.85;9.20;;;21.40;71.30;;;;;;5080356;28;19908;-63
2022/09/11 10:35:17;;;;;;;17.70;13.18;;;21.30;72.20;;;;;;5094859;28;20047;-63
2022/09/11 10:37:42;;;;;;;21.02;14.18;;;21.20;71.50;;;;;;5092084;28;20060;-63
2022/09/11 10:40:20;;;;;;;20.77;15.73;;;21.20;71.80;;;;;;5076732;28;20494;-63
2022/09/11 10:42:49;;;;;;;21.02;16.38;;;21.20;72.00;;;;;;5087977;28;20024;-63
2022/09/11 10:45:16;;;;;;;21.45;16.92;;;21.20;72.00;;;;;;5076850;28;20348;-63
2022/09/11 10:47:44;;;;;;;23.80;17.08;;;21.50;71.60;;;;;;5063857;28;20125;-63
2022/09/11 10:50:16;;;;;;;21.95;17.60;;;21.80;70.80;;;;;;5088008;28;20051;-63
2022/09/11 10:53:01;;;;;;;22.58;15.82;;;22.10;70.10;;;;;;5093838;28;20059;-64
2022/09/11 10:55:39;;;;;;;19.60;15.82;;;22.30;69.50;;;;;;5065558;28;20111;-63
2022/09/11 10:58:11;;;;;;;22.55;16.88;;;22.50;69.20;;;;;;5093429;28;20035;-63
2022/09/11 11:00:37;;;;;;;19.42;14.98;;;22.50;69.10;;;;;;5080300;28;20066;-63
2022/09/11 11:03:10;;;;;;;18.02;13.88;;;22.60;68.90;;;;;;5067659;28;20113;-62
2022/09/11 11:05:58;;;;;;;20.83;15.18;;;22.70;68.40;;;;;;5096581;28;20031;-62
2022/09/11 11:08:53;;;;;;;19.17;14.00;;;22.60;68.60;;;;;;5091057;28;20394;-63
2022/09/11 11:11:49;;;;;;;18.70;14.25;;;22.40;69.00;;;;;;5051902;28;20059;-62
2022/09/11 11:14:46;;;;;;;18.58;13.43;;;22.30;69.10;;;;;;5090324;28;20447;-63
2022/09/11 11:17:30;;;;;;;17.00;13.02;;;22.30;69.20;;;;;;5097603;28;20119;-62
2022/09/11 11:20:19;;;;;;;19.52;15.45;;;22.30;69.10;;;;;;5073117;28;20369;-63
2022/09/11 11:23:17;;;;;;;18.27;14.07;;;22.20;68.90;;;;;;5070376;28;20436;-63
2022/09/11 11:26:18;;;;;;;17.55;13.65;;;22.00;69.20;;;;;;5095979;28;20024;-63
2022/09/11 11:29:06;;;;;;;18.38;14.05;;;21.90;69.50;;;;;;5070793;28;20024;-63
2022/09/11 11:31:51;;;;;;;17.73;13.48;;;21.80;69.60;;;;;;5093674;28;20090;-64
2022/09/11 11:34:22;;;;;;;17.40;12.95;;;21.70;69.80;;;;;;5066487;28;20103;-64
2022/09/11 11:37:02;;;;;;;16.73;12.80;;;21.70;69.80;;;;;;5089169;28;20047;-62
2022/09/11 11:39:35;;;;;;;15.88;12.05;;;21.70;69.50;;;;;;5091889;28;20047;-62
2022/09/11 11:42:25;;;;;;;16.95;12.63;;;21.80;69.30;;;;;;5079037;28;20475;-62
2022/09/11 11:45:08;;;;;;;15.67;11.87;;;21.90;69.20;;;;;;5069854;28;20028;-62
2022/09/11 11:47:41;;;;;;;17.15;12.68;;;21.90;69.20;;;;;;5089946;28;20482;-63
2022/09/11 11:50:22;;;;;;;15.27;12.02;;;21.90;68.90;;;;;;5084564;28;20068;-64
2022/09/11 11:53:03;;;;;;;17.13;12.30;;;21.80;68.70;;;;;;5062220;28;20028;-63
2022/09/11 11:56:00;;;;;;;15.77;12.00;;;21.80;68.80;;;;;;5097664;28;20060;-63
2022/09/11 11:58:39;;;;;;;12.45;9.27;;;21.90;68.60;;;;;;5084897;28;20033;-63
2022/09/11 12:01:10;;;;;;;13.48;10.57;;;22.20;68.30;;;;;;5084254;28;20393;-63
2022/09/11 12:03:45;;;;;;;;;;;22.50;67.90;;;;;;5086642;28;20039;-64
2022/09/11 12:06:11;;;;;;;15.57;10.48;;;22.70;67.60;;;;;;5096057;28;19912;-63
2022/09/11 12:08:46;;;;;;;14.73;10.07;;;22.70;67.30;;;;;;5092985;28;20028;-63
2022/09/11 12:11:18;;;;;;;13.25;9.57;;;22.70;67.00;;;;;;5049213;28;20024;-63
2022/09/11 12:13:46;;;;;;;;;;;22.80;67.00;;;;;;5082606;28;20067;-63
2022/09/11 12:16:23;;;;;;;12.82;8.80;;;22.80;66.90;;;;;;5075620;28;20293;-63
2022/09/11 12:19:11;;;;;;;12.25;9.38;;;22.90;66.60;;;;;;5084092;28;20036;-63
2022/09/11 12:21:58;;;;;;;11.18;8.52;;;23.00;66.20;;;;;;5075563;28;20036;-63
2022/09/11 12:24:44;;;;;;;14.55;9.55;;;23.00;66.10;;;;;;5080961;28;20024;-63
2022/09/11 12:27:35;;;;;;;12.50;8.95;;;22.90;65.80;;;;;;5079502;28;20357;-64
2022/09/11 12:30:15;;;;;;;12.02;8.68;;;22.90;66.00;;;;;;5085696;28;20025;-63
2022/09/11 12:32:45;;;;;;;12.73;8.25;;;22.90;65.70;;;;;;5075535;28;20093;-64
2022/09/11 12:35:25;;;;;;;12.93;8.07;;;22.90;66.30;;;;;;5087932;28;20025;-63
2022/09/11 12:38:05;;;;;;;12.70;7.80;;;23.00;65.60;;;;;;5079712;28;20052;-63
2022/09/11 12:41:00;;;;;;;12.63;9.07;;;23.10;65.50;;;;;;5085472;28;20025;-63
2022/09/11 12:43:45;;;;;;;12.25;7.18;;;23.20;64.90;;;;;;5080896;28;20020;-63
2022/09/11 12:46:26;;;;;;;11.85;9.20;;;23.20;64.90;;;;;;5059024;28;20073;-68
2022/09/11 12:48:54;;;;;;;10.93;8.15;;;23.10;64.70;;;;;;5085199;28;20115;-63
2022/09/11 12:51:30;;;;;;;10.48;7.72;;;23.00;65.10;;;;;;5081252;28;20082;-62
2022/09/11 12:54:01;;;;;;;9.65;7.13;;;23.00;65.10;;;;;;5068447;28;20118;-63
2022/09/11 12:56:30;;;;;;;11.30;7.78;;;23.00;65.30;;;;;;5091229;28;20028;-63
2022/09/11 12:58:58;;;;;;;12.32;8.00;;;23.00;65.30;;;;;;5088487;28;20449;-63